Time;durP1;ratioP1;P1;durP2;ratioP2;P2;SDS_P1;SDS_P2;PMS_P1;PMS_P2;Temp;Humidity;BMP_temperature;BMP_pressure;BME280_temperature;BME280_humidity;BME280_pressure;Samples;Min_cycle;Max_cycle;Signal;HPM_P1;HPM_P2
2023/11/02 06:46:38;;;;;;;2.88;0.90;;;;;;;;;;10584475;27;20420;-88
2023/11/02 06:51:39;;;;;;;;;;;;;;;;;;10578438;28;20049;-88
2023/11/02 07:13:15;;;;;;;1.20;0.60;;;;;;;;;;10601750;28;20286;-89
2023/11/02 07:18:35;;;;;;;2.83;0.60;;;;;;;;;;10561854;28;20024;-89
2023/11/02 07:40:37;;;;;;;;;;;;;;;;;;10582675;28;20514;-90
2023/11/02 07:45:59;;;;;;;2.92;0.70;;;;;;;;;;10546902;28;19919;-89
2023/11/02 07:51:21;;;;;;;3.17;0.70;;;;;;;;;;10577179;28;20391;-88
2023/11/02 07:56:32;;;;;;;2.70;0.68;;;;;;;;;;10542814;28;20044;-88
2023/11/02 08:01:33;;;;;;;2.13;0.88;;;;;;;;;;10541414;28;20043;-86
2023/11/02 08:06:40;;;;;;;1.70;0.70;;;;;;;;;;10546467;28;20407;-84
2023/11/02 08:11:41;;;;;;;2.75;0.60;;;;;;;;;;10545470;28;20036;-84
2023/11/02 08:16:42;;;;;;;2.08;0.50;;;;;;;;;;10557826;28;20066;-85
2023/11/02 08:21:43;;;;;;;1.85;0.57;;;;;;;;;;10552164;28;20035;-84
2023/11/02 08:26:44;;;;;;;3.03;0.60;;;;;;;;;;10582918;28;20058;-81
2023/11/02 08:31:45;;;;;;;3.17;0.60;;;;;;;;;;10576399;28;20036;-82
2023/11/02 08:36:48;;;;;;;1.58;0.73;;;;;;;;;;10567067;28;20119;-84
2023/11/02 08:41:49;;;;;;;1.45;0.65;;;;;;;;;;10546357;28;20124;-84
2023/11/02 08:46:53;;;;;;;2.70;0.80;;;;;;;;;;10543853;28;20035;-84
2023/11/02 08:51:54;;;;;;;1.75;0.70;;;;;;;;;;10543632;28;20517;-84
2023/11/02 08:56:55;;;;;;;1.67;0.98;;;;;;;;;;10543374;28;20127;-84
2023/11/02 09:01:58;;;;;;;1.63;0.75;;;;;;;;;;10546918;28;20028;-84
2023/11/02 09:06:59;;;;;;;1.38;0.65;;;;;;;;;;10549043;28;20036;-84
2023/11/02 09:12:00;;;;;;;1.60;0.73;;;;;;;;;;10548373;28;20108;-85
2023/11/02 09:17:01;;;;;;;;;;;;;;;;;;10555918;28;20376;-84
2023/11/02 09:22:03;;;;;;;1.38;0.70;;;;;;;;;;10562392;28;19962;-85
2023/11/02 09:27:05;;;;;;;1.15;0.52;;;;;;;;;;10544837;28;20520;-84
2023/11/02 09:32:06;;;;;;;2.30;0.63;;;;;;;;;;10544529;28;20039;-84
2023/11/02 09:37:07;;;;;;;;;;;;;;;;;;10566582;28;20028;-81
2023/11/02 09:42:08;;;;;;;3.38;0.60;;;;;;;;;;10568569;28;19904;-84
2023/11/02 09:47:10;;;;;;;4.03;2.08;;;;;;;;;;10539048;28;20032;-83
2023/11/02 09:52:12;;;;;;;1.50;0.52;;;;;;;;;;10539946;28;20028;-85
2023/11/02 09:57:15;;;;;;;1.77;0.77;;;;;;;;;;10536892;28;20028;-86
2023/11/02 10:02:18;;;;;;;1.58;0.60;;;;;;;;;;10539264;28;20043;-85
2023/11/02 10:07:19;;;;;;;1.58;0.75;;;;;;;;;;10537376;28;20047;-85
2023/11/02 10:17:40;;;;;;;3.30;1.30;;;;;;;;;;10556440;28;20080;-85
2023/11/02 10:22:47;;;;;;;4.70;0.95;;;;;;;;;;10541295;28;20104;-85
2023/11/02 10:27:50;;;;;;;3.25;1.48;;;;;;;;;;10548489;28;20058;-84
2023/11/02 10:32:51;;;;;;;3.05;1.00;;;;;;;;;;10550032;28;20032;-83
2023/11/02 10:37:53;;;;;;;3.83;0.80;;;;;;;;;;10569635;28;20059;-83
2023/11/02 10:42:56;;;;;;;3.10;1.00;;;;;;;;;;10544921;28;20380;-84
2023/11/02 10:47:57;;;;;;;1.70;0.80;;;;;;;;;;10557369;28;20028;-84
2023/11/02 10:53:00;;;;;;;4.03;1.17;;;;;;;;;;10540711;28;20028;-84
2023/11/02 10:58:01;;;;;;;2.47;0.70;;;;;;;;;;10546455;28;20392;-84
2023/11/02 11:03:12;;;;;;;3.60;1.30;;;;;;;;;;10555765;28;20032;-83
2023/11/02 11:08:13;;;;;;;4.00;0.95;;;;;;;;;;10529564;28;20103;-83
2023/11/02 11:13:14;;;;;;;;;;;;;;;;;;10549949;28;20032;-87
2023/11/02 11:18:15;;;;;;;4.53;1.27;;;;;;;;;;10532800;28;19908;-84
2023/11/02 11:23:17;;;;;;;4.20;1.08;;;;;;;;;;10528542;28;20126;-85
2023/11/02 11:28:32;;;;;;;2.75;1.10;;;;;;;;;;10535784;28;20051;-84
2023/11/02 11:33:48;;;;;;;5.80;1.13;;;;;;;;;;10542438;28;20036;-84
2023/11/02 11:38:50;;;;;;;2.63;0.88;;;;;;;;;;10540739;28;20046;-82
2023/11/02 11:44:11;;;;;;;4.57;1.20;;;;;;;;;;10563262;28;20030;-84
2023/11/02 11:49:31;;;;;;;3.67;1.10;;;;;;;;;;10543988;28;20048;-84
2023/11/02 11:54:33;;;;;;;3.13;0.88;;;;;;;;;;10547536;28;20495;-84
2023/11/02 11:59:53;;;;;;;8.00;1.30;;;;;;;;;;10548749;28;20095;-85
2023/11/02 12:04:56;;;;;;;4.20;1.33;;;;;;;;;;10548117;28;20056;-84
2023/11/02 12:10:01;;;;;;;6.43;1.00;;;;;;;;;;10543123;28;20059;-84
2023/11/02 12:15:16;;;;;;;3.53;0.82;;;;;;;;;;10544657;28;20055;-84
2023/11/02 12:20:32;;;;;;;6.63;1.20;;;;;;;;;;10544782;28;20085;-83
2023/11/02 12:25:33;;;;;;;4.07;0.95;;;;;;;;;;10544157;28;20130;-83
2023/11/02 12:30:34;;;;;;;;;;;;;;;;;;10557903;28;20029;-83
2023/11/02 12:35:35;;;;;;;6.75;1.30;;;;;;;;;;10538052;28;19907;-84
2023/11/02 12:41:05;;;;;;;6.13;1.30;;;;;;;;;;10540103;28;20052;-83
2023/11/02 12:46:09;;;;;;;5.70;1.23;;;;;;;;;;10538599;28;20422;-84
2023/11/02 12:51:23;;;;;;;6.78;1.58;;;;;;;;;;10541483;28;20036;-85
2023/11/02 12:56:28;;;;;;;6.15;1.20;;;;;;;;;;10566941;22;20049;-85
2023/11/02 13:01:49;;;;;;;4.68;1.10;;;;;;;;;;10476940;28;20040;-84
2023/11/02 13:06:54;;;;;;;5.70;1.73;;;;;;;;;;10490202;28;20110;-86
2023/11/02 13:11:55;;;;;;;6.70;1.38;;;;;;;;;;10503043;28;20028;-85
2023/11/02 13:16:56;;;;;;;7.65;1.50;;;;;;;;;;10519209;28;20162;-85
2023/11/02 13:21:57;;;;;;;;;;;;;;;;;;10496562;28;20078;-84
2023/11/02 13:27:00;;;;;;;7.82;1.33;;;;;;;;;;10498289;28;19904;-84
2023/11/02 13:32:06;;;;;;;7.40;1.20;;;;;;;;;;10513970;28;20043;-84
2023/11/02 13:37:07;;;;;;;5.75;1.05;;;;;;;;;;10497558;28;20055;-84
2023/11/02 13:42:08;;;;;;;;;;;;;;;;;;10498204;28;20476;-83
2023/11/02 13:47:12;;;;;;;7.28;1.30;;;;;;;;;;10498354;28;19994;-84
2023/11/02 13:52:13;;;;;;;4.43;1.20;;;;;;;;;;10496579;28;20036;-83
2023/11/02 13:57:14;;;;;;;3.42;1.13;;;;;;;;;;10497136;28;20079;-84
2023/11/02 14:02:17;;;;;;;4.68;1.08;;;;;;;;;;10497120;28;20114;-84
2023/11/02 14:07:22;;;;;;;5.97;1.20;;;;;;;;;;10497640;28;20033;-84
2023/11/02 14:12:23;;;;;;;4.50;1.33;;;;;;;;;;10498202;28;20125;-84
2023/11/02 14:17:26;;;;;;;;;;;;;;;;;;10520109;28;20029;-84
2023/11/02 14:22:27;;;;;;;3.45;0.95;;;;;;;;;;10504795;28;20398;-84
2023/11/02 14:27:29;;;;;;;5.85;1.58;;;;;;;;;;10504429;28;20104;-84
2023/11/02 14:32:30;;;;;;;5.55;1.30;;;;;;;;;;10501467;28;20059;-84
2023/11/02 14:37:32;;;;;;;5.00;1.10;;;;;;;;;;10492667;28;20038;-83
2023/11/02 14:42:33;;;;;;;4.28;1.08;;;;;;;;;;10502430;28;20443;-84
2023/11/02 14:47:34;;;;;;;4.85;1.20;;;;;;;;;;10505506;28;20037;-84
2023/11/02 14:52:36;;;;;;;4.40;1.13;;;;;;;;;;10523980;28;20044;-85
2023/11/02 14:57:37;;;;;;;4.35;1.38;;;;;;;;;;10499387;28;20099;-83
2023/11/02 15:02:42;;;;;;;3.40;1.20;;;;;;;;;;10500908;28;20028;-83
2023/11/02 15:07:43;;;;;;;6.85;1.67;;;;;;;;;;10530119;28;20546;-86
2023/11/02 15:12:44;;;;;;;;;;;;;;;;;;10522497;28;20083;-83
2023/11/02 15:17:45;;;;;;;6.45;1.40;;;;;;;;;;10527121;28;19904;-83
2023/11/02 15:22:46;;;;;;;5.63;1.35;;;;;;;;;;10505034;28;20033;-84
2023/11/02 15:27:47;;;;;;;3.72;1.10;;;;;;;;;;10500568;28;20033;-84
2023/11/02 15:32:49;;;;;;;4.35;0.90;;;;;;;;;;10497729;28;20036;-84
2023/11/02 15:37:50;;;;;;;4.63;1.27;;;;;;;;;;10499571;28;20039;-84
2023/11/02 15:42:52;;;;;;;5.75;1.23;;;;;;;;;;10502324;28;20082;-83
2023/11/02 15:47:54;;;;;;;5.93;1.27;;;;;;;;;;10499608;28;20048;-84
2023/11/02 15:52:55;;;;;;;3.72;1.00;;;;;;;;;;10519134;28;20532;-84
2023/11/02 15:57:56;;;;;;;;;;;;;;;;;;10508502;28;20461;-83
2023/11/02 16:02:57;;;;;;;6.38;1.42;;;;;;;;;;10521125;28;19904;-84
2023/11/02 16:07:58;;;;;;;;;;;;;;;;;;10501908;28;20037;-84
2023/11/02 16:12:59;;;;;;;4.68;1.67;;;;;;;;;;10501433;28;19908;-85
2023/11/02 16:18:01;;;;;;;9.65;1.58;;;;;;;;;;10498513;28;20062;-83
2023/11/02 16:23:03;;;;;;;5.72;1.40;;;;;;;;;;10516046;28;20103;-83
2023/11/02 16:28:04;;;;;;;7.20;1.52;;;;;;;;;;10499548;28;20086;-84
2023/11/02 16:33:05;;;;;;;7.57;1.60;;;;;;;;;;10510477;28;20028;-84
2023/11/02 16:38:07;;;;;;;6.88;1.52;;;;;;;;;;10491565;28;20396;-83
2023/11/02 16:43:09;;;;;;;;;;;;;;;;;;10509689;28;20426;-83
2023/11/02 16:48:10;;;;;;;5.60;1.88;;;;;;;;;;10493860;28;19972;-84
2023/11/02 16:53:12;;;;;;;8.00;1.75;;;;;;;;;;10497871;28;20068;-84
2023/11/02 16:58:13;;;;;;;5.40;1.23;;;;;;;;;;10496816;28;20415;-84
2023/11/02 17:03:14;;;;;;;7.05;1.88;;;;;;;;;;10495090;28;20036;-84
2023/11/02 17:08:15;;;;;;;4.55;1.48;;;;;;;;;;10496111;28;20040;-83
2023/11/02 17:13:17;;;;;;;6.75;1.70;;;;;;;;;;10498547;28;20036;-83
2023/11/02 17:18:18;;;;;;;6.35;1.50;;;;;;;;;;10497912;28;20127;-86
2023/11/02 17:23:19;;;;;;;6.15;1.38;;;;;;;;;;10497606;28;20086;-84
2023/11/02 17:28:20;;;;;;;6.18;1.60;;;;;;;;;;10526082;28;20060;-83
2023/11/02 17:33:21;;;;;;;;;;;;;;;;;;10508539;28;20139;-85
2023/11/02 17:38:23;;;;;;;7.78;1.95;;;;;;;;;;10532761;28;19893;-84
2023/11/02 17:43:24;;;;;;;5.65;1.50;;;;;;;;;;10495291;28;20040;-85
2023/11/02 17:48:26;;;;;;;5.13;1.45;;;;;;;;;;10494497;28;20133;-84
2023/11/02 17:53:27;;;;;;;5.65;1.65;;;;;;;;;;10493251;28;20070;-84
2023/11/02 17:58:28;;;;;;;5.88;1.65;;;;;;;;;;10495088;28;20043;-84
2023/11/02 18:03:31;;;;;;;9.95;1.73;;;;;;;;;;10496159;28;20112;-84
2023/11/02 18:08:32;;;;;;;7.63;1.77;;;;;;;;;;10495251;28;20091;-84
2023/11/02 18:13:33;;;;;;;7.53;1.67;;;;;;;;;;10495169;28;20076;-84
2023/11/02 18:18:34;;;;;;;7.53;1.67;;;;;;;;;;10494979;28;20052;-84
2023/11/02 18:23:35;;;;;;;7.72;1.77;;;;;;;;;;10501323;28;20079;-83
2023/11/02 18:28:36;;;;;;;7.60;1.70;;;;;;;;;;10520930;28;20029;-83
2023/11/02 18:33:38;;;;;;;6.20;1.50;;;;;;;;;;10504234;28;20033;-84
2023/11/02 18:38:39;;;;;;;5.85;1.55;;;;;;;;;;10496760;28;20058;-84
2023/11/02 18:43:41;;;;;;;4.75;1.60;;;;;;;;;;10494208;28;20194;-82
2023/11/02 18:48:42;;;;;;;6.57;1.50;;;;;;;;;;10492844;28;20032;-84
2023/11/02 18:53:46;;;;;;;5.50;1.48;;;;;;;;;;10512595;28;20041;-85
2023/11/02 18:58:47;;;;;;;9.35;1.90;;;;;;;;;;10545339;22;20060;-80
2023/11/02 19:03:48;;;;;;;;;;;;;;;;;;10526591;28;20059;-82
2023/11/02 19:08:51;;;;;;;6.85;1.50;;;;;;;;;;10515268;28;20276;-82
2023/11/02 19:13:53;;;;;;;8.35;1.95;;;;;;;;;;10493125;28;20040;-82
2023/11/02 19:18:56;;;;;;;7.13;1.90;;;;;;;;;;10488985;28;20032;-82
2023/11/02 19:23:57;;;;;;;8.10;1.85;;;;;;;;;;10492912;28;20040;-82
2023/11/02 19:28:58;;;;;;;8.85;1.98;;;;;;;;;;10491875;28;20079;-83
2023/11/02 19:34:00;;;;;;;8.93;1.58;;;;;;;;;;10495398;28;20067;-82
2023/11/02 19:39:02;;;;;;;9.18;1.63;;;;;;;;;;10490982;28;20032;-81
2023/11/02 19:44:04;;;;;;;5.28;1.52;;;;;;;;;;10491305;28;20040;-81
2023/11/02 19:49:06;;;;;;;5.40;1.13;;;;;;;;;;10492269;28;20055;-81
2023/11/02 19:54:09;;;;;;;9.80;2.03;;;;;;;;;;10495908;28;20040;-81
2023/11/02 19:59:10;;;;;;;5.40;1.52;;;;;;;;;;10498143;28;20068;-82
2023/11/02 20:04:11;;;;;;;;;;;;;;;;;;10497203;28;20036;-82
2023/11/02 20:09:13;;;;;;;4.57;1.33;;;;;;;;;;10498407;28;20364;-82
